TimeCST,TemperatureF,Dew PointF,Humidity,Sea Level PressureIn,VisibilityMPH,Wind Direction,Wind SpeedMPH,Gust SpeedMPH,PrecipitationIn,Events,Conditions,WindDirDegrees,DateUTC
12:01 AM,19.4,15.8,86,30.15,10.0,North,16.1,-,N/A,,Overcast,360,2012-12-26 06:01:00
12:24 AM,19.4,15.8,86,30.14,10.0,North,18.4,-,N/A,,Overcast,360,2012-12-26 06:24:00
12:54 AM,19.9,15.1,81,30.16,10.0,North,16.1,-,N/A,,Partly Cloudy,10,2012-12-26 06:54:00
1:54 AM,21.0,15.1,78,30.14,10.0,North,13.8,-,N/A,,Overcast,10,2012-12-26 07:54:00
2:54 AM,21.2,15.8,80,30.09,10.0,North,19.6,25.3,N/A,,Overcast,10,2012-12-26 08:54:00
3:54 AM,21.0,16.0,81,30.11,10.0,North,16.1,-,N/A,,Overcast,360,2012-12-26 09:54:00
4:54 AM,21.0,15.1,78,30.10,10.0,North,15.0,24.2,N/A,,Overcast,360,2012-12-26 10:54:00
5:54 AM,19.9,15.1,81,30.12,10.0,North,13.8,-,N/A,,Overcast,360,2012-12-26 11:54:00
6:54 AM,19.9,15.1,81,30.13,10.0,North,15.0,-,N/A,,Mostly Cloudy,350,2012-12-26 12:54:00
7:54 AM,19.0,14.0,81,30.12,10.0,NNW,15.0,-,N/A,,Clear,340,2012-12-26 13:54:00
8:54 AM,21.0,16.0,81,30.13,10.0,North,13.8,-,N/A,,Overcast,350,2012-12-26 14:54:00
9:54 AM,25.0,18.0,75,30.14,10.0,North,16.1,-,N/A,,Overcast,350,2012-12-26 15:54:00
10:54 AM,26.1,19.0,75,30.13,10.0,NNW,15.0,-,N/A,,Overcast,340,2012-12-26 16:54:00
11:26 AM,26.6,19.4,74,30.08,10.0,North,16.1,-,N/A,,Overcast,350,2012-12-26 17:26:00
11:54 AM,27.0,19.9,75,30.11,10.0,NNW,17.3,-,N/A,,Overcast,340,2012-12-26 17:54:00
12:54 PM,26.1,19.0,75,30.12,10.0,NNW,17.3,-,N/A,,Overcast,330,2012-12-26 18:54:00
1:54 PM,25.0,18.0,75,30.13,10.0,NNW,16.1,-,N/A,,Overcast,330,2012-12-26 19:54:00
2:54 PM,26.1,18.0,71,30.14,10.0,NNW,15.0,-,N/A,,Overcast,340,2012-12-26 20:54:00
3:54 PM,25.0,19.0,78,30.16,10.0,NW,12.7,-,N/A,,Overcast,320,2012-12-26 21:54:00
4:54 PM,25.0,19.0,78,30.17,10.0,NNW,11.5,-,N/A,,Overcast,330,2012-12-26 22:54:00
5:54 PM,25.0,19.0,78,30.19,10.0,NNW,9.2,-,N/A,,Overcast,330,2012-12-26 23:54:00
6:54 PM,25.0,19.0,78,30.19,10.0,NNW,8.1,-,N/A,,Overcast,330,2012-12-27 00:54:00
7:54 PM,25.0,19.0,78,30.19,10.0,North,11.5,-,N/A,,Overcast,360,2012-12-27 01:54:00
8:54 PM,25.0,19.0,78,30.19,10.0,NNW,6.9,-,N/A,,Overcast,340,2012-12-27 02:54:00
9:54 PM,25.0,19.0,78,30.20,10.0,NNW,6.9,-,N/A,,Overcast,330,2012-12-27 03:54:00
10:54 PM,24.1,19.0,81,30.20,10.0,NNW,6.9,-,N/A,,Overcast,330,2012-12-27 04:54:00
11:54 PM,24.1,19.0,81,30.19,10.0,WNW,5.8,-,N/A,,Overcast,300,2012-12-27 05:54:00